Time;durP1;ratioP1;P1;durP2;ratioP2;P2;SDS_P1;SDS_P2;PMS_P1;PMS_P2;Temp;Humidity;BMP_temperature;BMP_pressure;BME280_temperature;BME280_humidity;BME280_pressure;Samples;Min_cycle;Max_cycle;Signal;HPM_P1;HPM_P2
2022/03/14 00:00:18;;;;;;;8.27;3.45;;;;;;;13.45;63.26;101354.03;5099100;28;20480;-72
2022/03/14 00:02:45;;;;;;;7.35;3.45;;;;;;;13.43;63.43;101350.84;5087002;28;20344;-72
2022/03/14 00:05:15;;;;;;;7.88;3.38;;;;;;;13.40;63.25;101346.09;5082066;28;20051;-72
2022/03/14 00:07:44;;;;;;;7.30;3.03;;;;;;;13.43;62.41;101345.31;5088362;28;20055;-71
2022/03/14 00:10:16;;;;;;;7.82;3.78;;;;;;;13.42;62.16;101343.72;5087114;28;20054;-70
2022/03/14 00:12:44;;;;;;;8.00;3.97;;;;;;;13.48;62.22;101344.91;5086698;28;20052;-70
2022/03/14 00:15:12;;;;;;;7.88;3.85;;;;;;;13.48;62.29;101331.00;5089863;28;20131;-74
2022/03/14 00:17:40;;;;;;;7.03;3.28;;;;;;;13.52;62.14;101334.56;5092320;28;20047;-72
2022/03/14 00:20:09;;;;;;;6.53;3.47;;;;;;;13.48;63.88;101341.31;5087262;28;20195;-72
2022/03/14 00:22:37;;;;;;;10.93;3.28;;;;;;;13.49;63.22;101331.78;5098562;28;20439;-74
2022/03/14 00:25:05;;;;;;;7.22;3.28;;;;;;;13.51;62.60;101348.84;5085572;28;20047;-72
2022/03/14 00:27:32;;;;;;;10.23;3.33;;;;;;;13.46;63.72;101347.28;5092206;28;20052;-71
2022/03/14 00:29:58;;;;;;;6.25;3.05;;;;;;;13.41;62.92;101346.91;5096469;28;20116;-73
2022/03/14 00:32:25;;;;;;;7.80;3.05;;;;;;;13.41;63.00;101346.91;5088636;28;20575;-72
2022/03/14 00:34:51;;;;;;;5.75;3.17;;;;;;;13.33;64.40;101351.69;5087735;28;20044;-72
2022/03/14 00:37:18;;;;;;;7.53;3.20;;;;;;;13.29;63.68;101345.34;5095748;28;20158;-72
2022/03/14 00:39:45;;;;;;;9.48;3.30;;;;;;;13.32;63.34;101341.75;5097862;28;20132;-71
2022/03/14 00:42:12;;;;;;;7.80;3.08;;;;;;;13.30;64.23;101351.69;5090395;28;20051;-72
2022/03/14 00:44:39;;;;;;;6.72;2.90;;;;;;;13.27;64.48;101352.50;5091848;28;20801;-71
2022/03/14 00:47:05;;;;;;;4.93;2.60;;;;;;;13.23;63.98;101357.28;5084016;28;20048;-74
2022/03/14 00:49:33;;;;;;;7.18;2.70;;;;;;;13.20;64.70;101352.50;5083127;28;20044;-72
2022/03/14 00:52:05;;;;;;;5.68;2.47;;;;;;;13.17;64.67;101361.66;5087134;28;20055;-71
2022/03/14 00:54:31;;;;;;;6.50;2.55;;;;;;;13.17;66.07;101362.44;5092647;28;20138;-72
2022/03/14 00:56:58;;;;;;;6.93;2.33;;;;;;;13.19;65.67;101362.06;5085221;28;20044;-72
2022/03/14 00:59:24;;;;;;;8.25;2.70;;;;;;;13.15;66.77;101367.59;5086311;28;20522;-74
2022/03/14 01:01:51;;;;;;;4.93;2.50;;;;;;;13.09;66.27;101371.97;5085297;28;20090;-72
2022/03/14 01:04:18;;;;;;;5.70;2.50;;;;;;;13.06;66.52;101364.44;5080588;28;20443;-72
2022/03/14 01:06:44;;;;;;;6.35;2.78;;;;;;;13.03;66.12;101371.56;5093904;28;20066;-71
2022/03/14 01:09:11;;;;;;;6.57;2.58;;;;;;;13.04;67.72;101380.72;5093471;28;20126;-74
2022/03/14 01:11:38;;;;;;;6.53;2.67;;;;;;;13.00;66.90;101377.16;5086573;28;20055;-73
2022/03/14 01:14:05;;;;;;;5.82;2.30;;;;;;;13.02;66.57;101379.53;5088123;28;20079;-73
2022/03/14 01:16:32;;;;;;;6.60;2.33;;;;;;;12.94;68.24;101390.63;5092866;28;20052;-73
2022/03/14 01:19:00;;;;;;;6.05;2.78;;;;;;;12.90;68.75;101397.38;5081061;28;20048;-72
2022/03/14 01:21:28;;;;;;;7.03;2.80;;;;;;;12.90;67.98;101400.13;5091644;28;20048;-72
2022/03/14 01:23:55;;;;;;;6.22;2.30;;;;;;;12.89;68.76;101404.09;5087828;28;20127;-71
2022/03/14 01:26:21;;;;;;;7.38;2.45;;;;;;;12.88;67.97;101414.41;5079973;28;20050;-73
2022/03/14 01:28:48;;;;;;;5.00;2.55;;;;;;;12.85;69.15;101411.63;5087283;28;20446;-73
2022/03/14 01:31:15;;;;;;;5.13;2.30;;;;;;;12.84;68.93;101412.81;5086792;28;20048;-72
2022/03/14 01:33:42;;;;;;;6.93;2.60;;;;;;;12.78;70.07;101412.44;5084694;28;20139;-73
2022/03/14 01:36:08;;;;;;;7.70;3.00;;;;;;;12.85;68.18;101409.66;5083794;28;20135;-73
2022/03/14 01:38:34;;;;;;;5.15;2.30;;;;;;;12.87;67.96;101406.47;5086383;28;20656;-72
2022/03/14 01:41:01;;;;;;;6.45;2.60;;;;;;;12.90;69.77;101394.59;5083440;28;20040;-72
2022/03/14 01:43:27;;;;;;;6.38;2.70;;;;;;;12.98;70.70;101401.72;5091065;28;20046;-71
2022/03/14 01:45:58;;;;;;;5.90;2.30;;;;;;;12.87;70.63;101412.03;5086304;28;20048;-71
2022/03/14 01:48:25;;;;;;;5.50;2.58;;;;;;;12.85;73.22;101425.50;5085551;28;20098;-71
2022/03/14 01:50:52;;;;;;;4.72;2.50;;;;;;;12.81;72.77;101430.28;5087438;28;20052;-73
2022/03/14 01:53:20;;;;;;;8.38;3.35;;;;;;;12.76;74.04;101431.47;5082235;28;20499;-71
2022/03/14 01:55:48;;;;;;;8.60;2.90;;;;;;;12.73;75.05;101428.69;5084711;28;20047;-71
2022/03/14 01:58:16;;;;;;;6.45;2.88;;;;;;;12.70;75.69;101435.03;5088897;28;20044;-71
2022/03/14 02:00:43;;;;;;;6.43;2.70;;;;;;;12.60;77.72;101444.13;5089863;28;20042;-72
2022/03/14 02:03:10;;;;;;;7.72;3.28;;;;;;;12.56;77.32;101437.78;5088026;28;20043;-72
2022/03/14 02:05:37;;;;;;;6.15;2.75;;;;;;;12.55;77.32;101442.53;5084811;28;20064;-73
2022/03/14 02:08:07;;;;;;;9.13;3.50;;;;;;;12.59;77.31;101445.31;5087579;28;20138;-72
2022/03/14 02:10:34;;;;;;;8.27;2.80;;;;;;;12.56;75.77;101455.22;5088779;28;20044;-73
2022/03/14 02:13:08;;;;;;;9.63;3.97;;;;;;;12.52;76.75;101450.88;5087143;28;20048;-71
2022/03/14 02:15:35;;;;;;;9.80;3.78;;;;;;;12.48;77.64;101448.06;5095718;28;20544;-74
2022/03/14 02:18:03;;;;;;;10.75;4.03;;;;;;;12.44;79.38;101452.00;5092513;28;20066;-71
2022/03/14 02:20:29;;;;;;;11.07;3.60;;;;;;;12.39;81.20;101450.41;5080342;28;20505;-73
2022/03/14 02:22:56;;;;;;;6.75;3.15;;;;;;;12.31;83.51;101454.34;5073809;28;20079;-72
2022/03/14 02:25:23;;;;;;;10.40;4.15;;;;;;;12.31;82.87;101456.31;5077019;28;20147;-75
2022/03/14 02:27:51;;;;;;;12.02;3.95;;;;;;;12.26;82.18;101456.72;5075788;28;20071;-72
2022/03/14 02:30:18;;;;;;;9.85;4.10;;;;;;;12.24;83.59;101456.31;5089213;28;20052;-71
2022/03/14 02:32:46;;;;;;;13.50;4.60;;;;;;;12.15;84.55;101456.66;5087961;28;20142;-72
2022/03/14 02:35:13;;;;;;;12.85;4.63;;;;;;;12.14;86.43;101462.59;5090201;28;20123;-74
2022/03/14 02:37:40;;;;;;;11.05;4.00;;;;;;;12.10;84.05;101461.78;5097384;28;20343;-71
2022/03/14 02:40:08;;;;;;;10.77;4.40;;;;;;;12.10;85.85;101468.16;5090439;28;20075;-72
2022/03/14 02:42:34;;;;;;;10.05;4.35;;;;;;;12.07;87.12;101462.56;5093908;28;20471;-73
2022/03/14 02:45:02;;;;;;;11.27;4.22;;;;;;;12.09;86.42;101474.09;5095677;28;20150;-72
2022/03/14 02:47:29;;;;;;;10.68;4.05;;;;;;;12.07;87.99;101459.78;5097726;28;20043;-71
2022/03/14 02:49:55;;;;;;;9.38;4.10;;;;;;;12.07;88.25;101482.78;5087742;28;20044;-71
2022/03/14 02:52:22;;;;;;;11.90;4.63;;;;;;;11.98;91.88;101481.56;5085540;28;20128;-72
2022/03/14 02:54:48;;;;;;;9.57;4.65;;;;;;;11.94;94.25;101487.09;5088594;28;20058;-73
2022/03/14 02:57:16;;;;;;;11.02;4.30;;;;;;;11.86;95.29;101491.00;5096157;28;20052;-72
2022/03/14 02:59:42;;;;;;;10.98;4.22;;;;;;;11.76;97.33;101493.69;5087498;28;20040;-71
2022/03/14 03:02:10;;;;;;;11.88;4.60;;;;;;;11.72;100.00;101504.78;5080673;28;20056;-72
2022/03/14 03:04:37;;;;;;;16.20;4.90;;;;;;;11.66;99.60;101500.78;5087034;28;20524;-71
2022/03/14 03:07:03;;;;;;;11.00;4.78;;;;;;;11.59;100.00;101509.00;5090158;28;20051;-73
2022/03/14 03:09:30;;;;;;;12.73;5.38;;;;;;;11.52;100.00;101508.16;5086667;28;20408;-72
2022/03/14 03:11:56;;;;;;;15.25;5.40;;;;;;;11.48;100.00;101516.44;5088355;28;20071;-71
2022/03/14 03:14:23;;;;;;;12.70;4.75;;;;;;;11.38;100.00;101508.84;5087235;28;20155;-73
2022/03/14 03:16:50;;;;;;;15.05;5.90;;;;;;;11.30;100.00;101523.03;5087797;28;20054;-73
2022/03/14 03:19:16;;;;;;;15.25;5.63;;;;;;;11.23;100.00;101517.41;5087655;28;20085;-71
2022/03/14 03:21:43;;;;;;;14.75;5.28;;;;;;;11.13;100.00;101523.66;5086700;28;20052;-72
2022/03/14 03:24:09;;;;;;;15.40;5.68;;;;;;;11.11;100.00;101528.78;5085204;28;20524;-71
2022/03/14 03:26:40;;;;;;;14.15;6.13;;;;;;;11.05;100.00;101535.84;5089071;28;20060;-73
2022/03/14 03:29:09;;;;;;;21.10;6.05;;;;;;;10.97;100.00;101542.50;5087733;28;20077;-73
2022/03/14 03:31:35;;;;;;;18.50;7.72;;;;;;;10.96;100.00;101547.22;5088816;28;20087;-71
2022/03/14 03:34:02;;;;;;;15.65;6.00;;;;;;;10.86;100.00;101541.59;5087834;28;20059;-74
2022/03/14 03:36:29;;;;;;;15.25;6.57;;;;;;;10.80;100.00;101543.88;5088938;28;20052;-73
2022/03/14 03:38:58;;;;;;;15.27;6.45;;;;;;;10.79;100.00;101550.59;5087973;28;20048;-71
2022/03/14 03:41:25;;;;;;;17.45;7.22;;;;;;;10.77;100.00;101552.97;5087736;28;20517;-74
2022/03/14 03:43:56;;;;;;;15.35;6.63;;;;;;;10.79;100.00;101563.63;5088138;28;20048;-71
2022/03/14 03:46:23;;;;;;;14.23;6.63;;;;;;;10.78;100.00;101567.59;5088492;28;20569;-75
2022/03/14 03:48:49;;;;;;;16.35;7.28;;;;;;;10.74;100.00;101567.56;5087867;28;20052;-72
2022/03/14 03:51:16;;;;;;;17.55;6.65;;;;;;;10.71;100.00;101575.81;5088182;28;20044;-73
2022/03/14 03:53:42;;;;;;;14.15;6.75;;;;;;;10.73;100.00;101579.00;5087884;28;20415;-72
2022/03/14 03:56:09;;;;;;;15.27;5.82;;;;;;;10.66;100.00;101581.69;5088058;28;20505;-73
2022/03/14 03:58:35;;;;;;;18.33;7.18;;;;;;;10.66;100.00;101592.75;5085335;28;20143;-74
2022/03/14 04:01:02;;;;;;;19.90;6.10;;;;;;;10.59;100.00;101592.69;5088521;28;20048;-71
2022/03/14 04:03:29;;;;;;;18.30;7.70;;;;;;;10.64;100.00;101600.63;5088125;28;20631;-72
2022/03/14 04:05:56;;;;;;;16.58;6.85;;;;;;;10.57;100.00;101608.84;5081535;28;20054;-73
2022/03/14 04:08:22;;;;;;;7.60;3.15;;;;;;;10.51;100.00;101613.91;5088569;28;20128;-72
2022/03/14 04:10:54;;;;;;;17.45;7.45;;;;;;;10.52;100.00;101609.19;5091010;28;20075;-72
2022/03/14 04:13:24;;;;;;;13.20;5.10;;;;;;;10.47;100.00;101619.38;5075859;28;20071;-72
2022/03/14 04:15:52;;;;;;;16.00;6.90;;;;;;;10.49;100.00;101617.06;5084404;28;20051;-72
2022/03/14 04:18:25;;;;;;;18.02;7.15;;;;;;;10.49;100.00;101627.31;5090195;28;20047;-73
2022/03/14 04:20:53;;;;;;;16.63;7.15;;;;;;;10.46;100.00;101631.63;5089631;28;20139;-73
2022/03/14 04:23:20;;;;;;;16.83;7.25;;;;;;;10.46;100.00;101628.06;5086645;28;20143;-72
2022/03/14 04:25:47;;;;;;;16.98;6.97;;;;;;;10.42;100.00;101633.56;5088941;28;20147;-72
2022/03/14 04:28:15;;;;;;;16.33;6.65;;;;;;;10.38;100.00;101626.38;5089444;28;20135;-72
2022/03/14 04:30:42;;;;;;;16.73;7.72;;;;;;;10.39;100.00;101633.50;5088796;28;20048;-72
2022/03/14 04:33:09;;;;;;;19.75;7.57;;;;;;;10.37;100.00;101630.31;5090106;28;20197;-73
2022/03/14 04:35:39;;;;;;;15.57;6.72;;;;;;;10.34;100.00;101636.59;5088500;28;20496;-72
2022/03/14 04:38:07;;;;;;;14.13;6.95;;;;;;;10.33;100.00;101644.09;5085740;28;20044;-72
2022/03/14 04:40:35;;;;;;;18.08;7.35;;;;;;;10.33;100.00;101644.09;5087725;28;20900;-71
2022/03/14 04:43:07;;;;;;;18.70;7.50;;;;;;;10.34;100.00;101645.72;5087584;28;20052;-71
2022/03/14 04:45:35;;;;;;;9.55;3.42;;;;;;;10.31;100.00;101660.28;5083031;28;20055;-71
2022/03/14 04:48:06;;;;;;;15.88;7.03;;;;;;;10.32;100.00;101670.16;5088117;28;20153;-71
2022/03/14 04:50:34;;;;;;;17.80;6.50;;;;;;;10.32;100.00;101669.34;5087955;28;20054;-72
2022/03/14 04:53:02;;;;;;;18.73;7.68;;;;;;;10.33;100.00;101663.47;5086536;28;20067;-72
2022/03/14 04:55:28;;;;;;;15.10;6.13;;;;;;;10.27;100.00;101664.16;5087782;28;20552;-72
2022/03/14 04:57:55;;;;;;;6.90;2.78;;;;;;;10.21;100.00;101671.97;5086961;28;20064;-71
2022/03/14 05:00:22;;;;;;;15.35;6.68;;;;;;;10.26;100.00;101668.88;5082045;28;20055;-72
2022/03/14 05:02:49;;;;;;;17.38;7.55;;;;;;;10.23;100.00;101679.91;5087501;28;20074;-72
2022/03/14 05:05:15;;;;;;;15.00;5.88;;;;;;;10.14;100.00;101673.84;5087245;28;20675;-71
2022/03/14 05:07:42;;;;;;;17.17;5.70;;;;;;;10.11;100.00;101672.63;5086939;28;20068;-71
2022/03/14 05:10:10;;;;;;;15.98;6.60;;;;;;;10.17;100.00;101686.91;5088338;28;20478;-71
2022/03/14 05:12:37;;;;;;;13.43;5.55;;;;;;;10.12;100.00;101685.25;5086513;28;20051;-72
2022/03/14 05:15:04;;;;;;;6.43;2.60;;;;;;;10.11;100.00;101686.44;5087664;28;20489;-72
2022/03/14 05:17:30;;;;;;;16.98;6.97;;;;;;;10.12;100.00;101684.44;5086598;28;20048;-71
2022/03/14 05:19:57;;;;;;;18.38;6.03;;;;;;;10.12;100.00;101695.50;5086172;28;20048;-72
2022/03/14 05:22:24;;;;;;;14.55;6.38;;;;;;;10.10;100.00;101695.88;5081754;28;20127;-72
2022/03/14 05:24:51;;;;;;;16.63;6.50;;;;;;;10.12;100.00;101696.31;5086544;28;20058;-72
2022/03/14 05:27:18;;;;;;;15.52;6.13;;;;;;;10.06;100.00;101699.78;5087387;28;20493;-72
2022/03/14 05:29:44;;;;;;;17.90;7.63;;;;;;;10.08;100.00;101694.66;5087342;28;20681;-71
2022/03/14 05:32:11;;;;;;;17.83;6.93;;;;;;;10.03;100.00;101704.03;5086582;28;20105;-72
2022/03/14 05:34:37;;;;;;;17.08;6.72;;;;;;;10.07;100.00;101704.94;5087514;28;20052;-71
2022/03/14 05:37:04;;;;;;;18.80;6.95;;;;;;;10.01;100.00;101700.88;5086844;28;20150;-72
2022/03/14 05:39:31;;;;;;;19.55;8.27;;;;;;;10.05;100.00;101709.19;5085374;28;20483;-73
2022/03/14 05:41:58;;;;;;;19.02;7.78;;;;;;;10.00;100.00;101709.53;5086511;28;20075;-71
2022/03/14 05:44:25;;;;;;;16.30;6.93;;;;;;;10.01;100.00;101711.09;5086744;28;20058;-71
2022/03/14 05:46:52;;;;;;;13.07;5.45;;;;;;;10.02;100.00;101712.69;5087184;28;20444;-71
2022/03/14 05:49:19;;;;;;;17.00;8.10;;;;;;;10.05;100.00;101718.31;5085634;28;20535;-72
2022/03/14 05:51:46;;;;;;;18.70;8.52;;;;;;;9.99;100.00;101708.72;5088265;28;20131;-70
2022/03/14 05:54:12;;;;;;;18.23;8.38;;;;;;;9.99;100.00;101719.00;5090102;28;20048;-70
2022/03/14 05:56:39;;;;;;;10.05;4.95;;;;;;;9.95;100.00;101727.22;5091049;28;20427;-72
2022/03/14 05:59:07;;;;;;;15.02;5.25;;;;;;;9.98;100.00;101731.19;5089685;28;20075;-72
2022/03/14 06:01:33;;;;;;;13.45;5.75;;;;;;;9.98;100.00;101729.25;5090007;28;20101;-70
2022/03/14 06:04:00;;;;;;;14.30;5.32;;;;;;;9.91;100.00;101736.59;5085029;28;20192;-71
2022/03/14 06:06:28;;;;;;;10.82;3.85;;;;;;;9.91;100.00;101739.38;5087340;28;20063;-71
2022/03/14 06:08:54;;;;;;;15.27;6.47;;;;;;;9.92;100.00;101744.53;5095638;28;20047;-71
2022/03/14 06:11:21;;;;;;;11.48;4.38;;;;;;;9.90;100.00;101752.41;5092690;28;20079;-71
2022/03/14 06:13:48;;;;;;;12.75;5.20;;;;;;;9.86;100.00;101764.56;5095748;28;20047;-72
2022/03/14 06:16:15;;;;;;;17.10;6.13;;;;;;;9.86;100.00;101756.28;5104464;28;20575;-72
2022/03/14 06:18:42;;;;;;;11.23;4.90;;;;;;;9.86;100.00;101759.81;5094082;28;20433;-71
2022/03/14 06:21:08;;;;;;;11.65;3.88;;;;;;;9.88;100.00;101773.28;5092518;28;20157;-71
2022/03/14 06:23:35;;;;;;;16.80;6.07;;;;;;;9.82;100.00;101772.78;5083901;28;20069;-72
2022/03/14 06:26:02;;;;;;;8.07;3.45;;;;;;;9.84;100.00;101783.47;5091497;28;20130;-71
2022/03/14 06:28:28;;;;;;;17.23;7.90;;;;;;;9.87;100.00;101779.97;5097280;28;20061;-72
2022/03/14 06:30:54;;;;;;;13.60;5.60;;;;;;;9.89;100.00;101783.19;5092495;28;20048;-72
2022/03/14 06:33:21;;;;;;;16.05;6.20;;;;;;;9.87;100.00;101791.03;5097110;28;20069;-71
2022/03/14 06:35:48;;;;;;;20.20;9.18;;;;;;;9.91;100.00;101795.47;5091337;28;20055;-71
2022/03/14 06:38:14;;;;;;;5.38;2.67;;;;;;;9.80;100.00;101800.00;5089525;28;20052;-70
2022/03/14 06:40:42;;;;;;;14.43;5.75;;;;;;;9.89;100.00;101797.78;5093841;28;20105;-70
2022/03/14 06:43:10;;;;;;;21.50;9.30;;;;;;;9.90;100.00;101798.59;5089794;28;20056;-70
2022/03/14 06:45:39;;;;;;;23.70;7.95;;;;;;;9.86;100.00;101801.28;5088702;28;20158;-71
2022/03/14 06:48:07;;;;;;;20.38;9.23;;;;;;;9.89;100.00;101808.84;5091188;28;20747;-71
2022/03/14 06:50:37;;;;;;;16.23;7.13;;;;;;;9.85;100.00;101804.41;5087593;28;20139;-73
2022/03/14 06:53:04;;;;;;;19.48;8.20;;;;;;;9.90;100.00;101799.41;5087546;28;20056;-72
2022/03/14 06:55:31;;;;;;;15.90;5.45;;;;;;;9.76;100.00;101812.16;5088933;28;20428;-71
2022/03/14 06:57:58;;;;;;;11.55;4.82;;;;;;;9.77;100.00;101810.97;5089422;28;20047;-74
2022/03/14 07:00:25;;;;;;;11.50;4.65;;;;;;;9.79;100.00;101822.50;5089852;28;20060;-72
2022/03/14 07:02:51;;;;;;;19.60;7.78;;;;;;;9.79;100.00;101826.03;5085424;28;20139;-74
2022/03/14 07:05:20;;;;;;;14.70;6.00;;;;;;;9.81;100.00;101822.91;5088273;28;20123;-74
2022/03/14 07:07:48;;;;;;;19.80;7.47;;;;;;;9.83;100.00;101826.91;5091747;28;20067;-74
2022/03/14 07:10:15;;;;;;;7.03;3.28;;;;;;;9.76;100.00;101837.81;5086003;28;20727;-74
2022/03/14 07:12:46;;;;;;;17.67;8.45;;;;;;;9.80;100.00;101838.72;5089843;28;20054;-74
2022/03/14 07:15:14;;;;;;;24.25;9.65;;;;;;;9.82;100.00;101844.66;5088072;28;20101;-75
2022/03/14 07:17:41;;;;;;;1.88;1.20;;;;;;;9.80;100.00;101852.53;5087411;28;20682;-73
2022/03/14 07:20:09;;;;;;;14.07;6.30;;;;;;;9.79;100.00;101856.44;5089488;28;20127;-73
2022/03/14 07:22:51;;;;;;;8.23;3.22;;;;;;;9.80;100.00;101851.72;5088056;28;20412;-73
2022/03/14 07:25:19;;;;;;;10.55;4.25;;;;;;;9.77;100.00;101860.75;5088913;28;20044;-73
2022/03/14 07:27:48;;;;;;;11.90;5.25;;;;;;;9.78;100.00;101862.31;5088634;28;20050;-73
2022/03/14 07:30:15;;;;;;;20.85;10.35;;;;;;;9.84;100.00;101872.75;5089303;28;20733;-73
2022/03/14 07:32:42;;;;;;;12.35;4.10;;;;;;;9.81;100.00;101867.13;5091195;28;20468;-73
2022/03/14 07:35:10;;;;;;;13.95;5.40;;;;;;;9.76;100.00;101875.72;5096787;28;20116;-74
2022/03/14 07:37:38;;;;;;;16.75;6.47;;;;;;;9.87;100.00;101876.75;5088929;28;20044;-73
2022/03/14 07:40:06;;;;;;;8.18;3.72;;;;;;;9.77;100.00;101875.38;5088031;28;20140;-73
2022/03/14 07:42:38;;;;;;;26.33;10.73;;;;;;;9.87;100.00;101880.31;5088082;28;20048;-73
2022/03/14 07:45:05;;;;;;;15.80;6.35;;;;;;;9.84;100.00;101888.53;5107506;27;20047;-73
2022/03/14 07:47:32;;;;;;;20.60;9.65;;;;;;;9.95;100.00;101895.88;5086462;28;20050;-73
2022/03/14 07:50:00;;;;;;;12.95;3.83;;;;;;;9.85;100.00;101888.16;5088479;28;20052;-73
2022/03/14 07:52:27;;;;;;;13.13;5.18;;;;;;;9.81;100.00;101884.53;5088574;28;20048;-74
2022/03/14 07:54:53;;;;;;;13.30;5.55;;;;;;;9.93;100.00;101898.19;5088672;28;20158;-74
2022/03/14 07:57:20;;;;;;;19.10;8.15;;;;;;;9.87;100.00;101905.19;5089279;28;20055;-75
2022/03/14 07:59:46;;;;;;;12.90;4.15;;;;;;;9.95;100.00;101906.94;5088466;28;20105;-74
2022/03/14 08:02:13;;;;;;;22.13;8.90;;;;;;;9.99;100.00;101902.25;5087385;28;20048;-73
2022/03/14 08:04:42;;;;;;;18.40;5.82;;;;;;;9.90;100.00;101915.53;5085533;28;20044;-73
2022/03/14 08:07:08;;;;;;;14.68;5.85;;;;;;;9.92;100.00;101921.47;5089230;28;20779;-76
2022/03/14 08:09:35;;;;;;;11.30;5.03;;;;;;;9.98;100.00;101928.31;5098421;28;20539;-73
2022/03/14 08:12:05;;;;;;;15.25;5.28;;;;;;;10.01;100.00;101938.66;5087234;28;20071;-75
2022/03/14 08:14:32;;;;;;;17.17;8.13;;;;;;;10.06;100.00;101935.63;5086276;28;20052;-73
2022/03/14 08:16:59;;;;;;;15.82;6.03;;;;;;;10.00;100.00;101937.03;5088564;28;20078;-75
2022/03/14 08:19:25;;;;;;;4.93;2.58;;;;;;;10.05;100.00;101938.72;5085746;28;20056;-74
2022/03/14 08:21:54;;;;;;;17.77;6.03;;;;;;;10.05;100.00;101949.78;5085749;28;20044;-73
2022/03/14 08:24:20;;;;;;;15.43;5.95;;;;;;;10.01;100.00;101944.19;5086971;28;20493;-72
2022/03/14 08:26:47;;;;;;;12.98;5.43;;;;;;;10.10;100.00;101955.84;5087525;28;20056;-72
2022/03/14 08:29:16;;;;;;;13.85;4.40;;;;;;;10.10;100.00;101957.84;5089400;28;20592;-74
2022/03/14 08:31:43;;;;;;;15.43;5.35;;;;;;;10.15;100.00;101950.03;5096671;28;20054;-72
2022/03/14 08:34:11;;;;;;;12.65;4.88;;;;;;;10.19;100.00;101964.72;5093045;28;20406;-73
2022/03/14 08:36:40;;;;;;;13.65;3.67;;;;;;;10.22;100.00;101957.66;5088313;28;20055;-73
2022/03/14 08:39:08;;;;;;;17.02;6.93;;;;;;;10.26;100.00;101959.34;5075368;28;20043;-75
2022/03/14 08:41:36;;;;;;;22.08;7.35;;;;;;;10.18;100.00;101960.38;5074041;28;20083;-73
2022/03/14 08:44:04;;;;;;;16.98;6.45;;;;;;;10.24;100.00;101961.69;5087690;28;20118;-73
2022/03/14 08:46:31;;;;;;;15.40;5.78;;;;;;;10.32;100.00;101968.94;5088828;28;20047;-73
2022/03/14 08:48:58;;;;;;;8.07;3.22;;;;;;;10.34;100.00;101979.66;5087495;28;20054;-75
2022/03/14 08:51:25;;;;;;;24.08;11.25;;;;;;;10.46;100.00;101976.72;5085800;28;20079;-73
2022/03/14 08:53:52;;;;;;;30.58;12.38;;;;;;;10.45;100.00;101984.22;5087683;28;20595;-75
2022/03/14 08:56:19;;;;;;;22.27;10.27;;;;;;;10.48;100.00;101986.28;5088266;28;20135;-73
2022/03/14 08:58:45;;;;;;;13.10;4.38;;;;;;;10.49;100.00;101987.06;5085856;28;20056;-73
2022/03/14 09:01:12;;;;;;;18.95;9.02;;;;;;;10.44;100.00;101982.63;5088333;28;20062;-72
2022/03/14 09:03:39;;;;;;;11.50;4.13;;;;;;;10.49;100.00;101995.34;5086205;28;20109;-74
2022/03/14 09:06:06;;;;;;;18.67;7.03;;;;;;;10.50;100.00;101986.69;5088189;28;20044;-72
2022/03/14 09:08:34;;;;;;;7.70;3.90;;;;;;;10.51;100.00;101987.50;5092772;28;20052;-73
2022/03/14 09:11:01;;;;;;;7.80;2.63;;;;;;;10.56;100.00;102001.03;5086845;28;20044;-73
2022/03/14 09:13:28;;;;;;;25.27;10.27;;;;;;;10.44;100.00;102007.50;5087756;28;20176;-72
2022/03/14 09:15:55;;;;;;;10.48;4.95;;;;;;;10.52;100.00;102002.16;5087420;28;20111;-73
2022/03/14 09:18:26;;;;;;;19.35;7.15;;;;;;;10.48;100.00;102008.41;5086859;28;20055;-74
2022/03/14 09:20:52;;;;;;;20.80;8.55;;;;;;;10.64;100.00;102011.09;5084515;28;20512;-71
2022/03/14 09:23:20;;;;;;;17.90;5.97;;;;;;;10.60;100.00;102017.72;5082344;28;20719;-74
2022/03/14 09:25:47;;;;;;;19.65;8.35;;;;;;;10.70;100.00;102006.03;5089783;28;20060;-73
2022/03/14 09:28:15;;;;;;;18.88;8.55;;;;;;;10.76;100.00;102015.66;5092742;28;20052;-72
2022/03/14 09:30:43;;;;;;;14.93;6.28;;;;;;;10.70;100.00;102019.88;5090360;28;20052;-72
2022/03/14 09:33:10;;;;;;;20.75;8.95;;;;;;;10.80;100.00;102016.53;5088212;28;20043;-74
2022/03/14 09:35:36;;;;;;;18.88;7.15;;;;;;;10.72;100.00;102023.06;5089027;28;20804;-74
2022/03/14 09:38:03;;;;;;;16.02;5.75;;;;;;;10.76;100.00;102023.97;5083131;28;21150;-75
2022/03/14 09:40:31;;;;;;;17.60;8.20;;;;;;;10.73;100.00;102038.53;5083536;28;20056;-76
2022/03/14 09:43:01;;;;;;;20.67;6.30;;;;;;;10.78;100.00;102032.69;5088620;28;20321;-72
2022/03/14 09:45:31;;;;;;;20.15;7.93;;;;;;;10.79;100.00;102053.66;5089974;28;20062;-72
2022/03/14 09:47:59;;;;;;;17.80;6.05;;;;;;;10.92;100.00;102046.78;5086819;28;20777;-72
2022/03/14 09:50:25;;;;;;;12.88;4.75;;;;;;;10.96;100.00;102048.47;5089248;28;20134;-74
2022/03/14 09:52:54;;;;;;;10.65;4.35;;;;;;;10.97;100.00;102052.03;5089201;28;20113;-72
2022/03/14 09:55:20;;;;;;;18.60;6.80;;;;;;;10.97;100.00;102050.06;5086548;28;20139;-74
2022/03/14 09:57:48;;;;;;;21.30;9.13;;;;;;;11.11;100.00;102053.09;5090676;28;20113;-73
2022/03/14 10:00:15;;;;;;;22.20;9.02;;;;;;;11.17;100.00;102062.69;5090207;28;20074;-77
2022/03/14 10:02:43;;;;;;;20.67;6.78;;;;;;;11.15;100.00;102055.91;5087700;28;20054;-73
2022/03/14 10:05:12;;;;;;;21.35;10.68;;;;;;;11.39;100.00;102055.53;5091140;28;20048;-74
2022/03/14 10:07:43;;;;;;;14.93;5.20;;;;;;;11.33;100.00;102080.00;5085897;28;20140;-72
2022/03/14 10:10:10;;;;;;;15.57;6.00;;;;;;;11.34;100.00;102073.28;5097242;28;20538;-72
2022/03/14 10:12:37;;;;;;;22.65;10.10;;;;;;;11.55;100.00;102072.84;5086281;28;20048;-73
2022/03/14 10:15:10;;;;;;;11.98;4.90;;;;;;;11.49;100.00;102074.31;5087878;28;20046;-76
2022/03/14 10:17:36;;;;;;;7.43;3.65;;;;;;;11.53;100.00;102083.50;5089982;28;20142;-72
2022/03/14 10:20:06;;;;;;;22.85;9.45;;;;;;;11.66;100.00;102084.94;5092977;28;20146;-75
2022/03/14 10:22:37;;;;;;;14.25;6.32;;;;;;;11.46;100.00;102088.91;5078842;28;20072;-74
2022/03/14 10:25:15;;;;;;;12.73;5.20;;;;;;;11.56;100.00;102097.44;5090071;28;20138;-74
2022/03/14 10:27:49;;;;;;;9.88;4.38;;;;;;;11.45;100.00;102104.78;5088676;28;20518;-76
2022/03/14 10:30:22;;;;;;;15.70;5.13;;;;;;;11.52;100.00;102124.28;5089370;28;20059;-75
2022/03/14 10:32:49;;;;;;;13.88;5.22;;;;;;;11.54;100.00;102112.84;5087289;28;21004;-73
2022/03/14 10:35:22;;;;;;;9.65;3.70;;;;;;;11.58;100.00;102113.69;5092576;28;20595;-75
2022/03/14 10:38:01;;;;;;;13.98;5.93;;;;;;;11.57;100.00;102125.94;5098728;28;20063;-73
2022/03/14 10:40:36;;;;;;;15.15;4.95;;;;;;;11.57;100.00;102128.69;5082503;28;20068;-74
2022/03/14 10:43:22;;;;;;;21.38;9.25;;;;;;;11.68;100.00;102124.97;5084006;28;20530;-72
2022/03/14 10:45:48;;;;;;;13.88;5.45;;;;;;;11.60;100.00;102133.50;5087401;28;21200;-72
2022/03/14 10:48:15;;;;;;;9.68;4.57;;;;;;;11.57;100.00;102142.56;5090596;28;20091;-75
2022/03/14 10:50:43;;;;;;;19.00;6.97;;;;;;;11.55;100.00;102133.84;5090986;28;20081;-73
2022/03/14 10:53:10;;;;;;;21.35;7.68;;;;;;;11.58;100.00;102142.19;5091394;28;20048;-73
2022/03/14 10:55:45;;;;;;;20.63;7.38;;;;;;;11.37;100.00;102143.81;5089079;28;20067;-73
2022/03/14 10:58:16;;;;;;;14.27;5.70;;;;;;;11.46;100.00;102136.03;5085243;28;20548;-73
2022/03/14 11:00:44;;;;;;;17.25;8.32;;;;;;;11.57;100.00;102128.69;5089438;28;20529;-72
2022/03/14 11:03:11;;;;;;;18.45;7.90;;;;;;;11.57;100.00;102131.47;5086169;28;20048;-73
2022/03/14 11:05:44;;;;;;;17.23;6.07;;;;;;;11.60;100.00;102127.97;5082782;28;20101;-72
2022/03/14 11:08:45;;;;;;;10.35;4.53;;;;;;;11.68;100.00;102143.59;5092575;28;20067;-72
2022/03/14 11:11:15;;;;;;;14.93;4.97;;;;;;;11.84;100.00;102131.19;5086701;28;20052;-72
2022/03/14 11:13:44;;;;;;;11.27;4.18;;;;;;;11.74;100.00;102142.91;5084756;28;20044;-72
2022/03/14 11:16:22;;;;;;;19.50;6.90;;;;;;;11.98;100.00;102134.19;5090293;28;20085;-72